createdAt,value
2019-05-21T00:00:10.131Z,0.00
2019-05-21T00:01:10.137Z,0.00
2019-05-21T00:02:10.111Z,0.00
2019-05-21T00:03:10.124Z,0.00
2019-05-21T00:04:10.082Z,0.00
2019-05-21T00:05:10.101Z,0.00
2019-05-21T00:06:10.070Z,0.00
2019-05-21T00:07:10.055Z,0.00
2019-05-21T00:08:10.045Z,0.00
2019-05-21T00:09:10.048Z,0.00
2019-05-21T00:10:10.018Z,0.00
2019-05-21T00:11:10.008Z,0.00
2019-05-21T00:12:10.003Z,0.00
2019-05-21T00:13:09.993Z,0.00
2019-05-21T00:14:09.996Z,0.00
2019-05-21T00:15:09.969Z,0.00
2019-05-21T00:16:09.959Z,0.00
2019-05-21T00:17:09.966Z,0.00
2019-05-21T00:18:09.935Z,0.00
2019-05-21T00:19:09.943Z,0.00
2019-05-21T00:20:09.921Z,0.00
2019-05-21T00:21:09.910Z,0.00
2019-05-21T00:22:09.896Z,0.00
2019-05-21T00:23:09.883Z,0.00
2019-05-21T00:24:09.872Z,0.00
2019-05-21T00:25:09.885Z,0.00
2019-05-21T00:26:09.854Z,0.00
2019-05-21T00:27:09.848Z,0.00
2019-05-21T00:28:09.826Z,0.00
2019-05-21T00:29:09.815Z,0.00
2019-05-21T00:30:09.828Z,0.00
2019-05-21T00:31:09.791Z,0.00
2019-05-21T00:32:09.789Z,0.00
2019-05-21T00:33:09.788Z,0.00
2019-05-21T00:34:09.767Z,0.00
2019-05-21T00:35:09.761Z,0.00
2019-05-21T00:36:09.769Z,0.00
2019-05-21T00:37:09.736Z,0.00
2019-05-21T00:38:09.727Z,0.00
2019-05-21T00:39:09.716Z,0.00
2019-05-21T00:40:09.692Z,0.00
2019-05-21T00:41:09.686Z,0.00
2019-05-21T00:42:09.686Z,0.00
2019-05-21T00:43:09.662Z,0.00
2019-05-21T00:44:09.661Z,0.00
2019-05-21T00:45:09.650Z,0.00
2019-05-21T00:46:09.669Z,0.00
2019-05-21T00:47:09.632Z,0.00
2019-05-21T00:48:09.608Z,0.00
2019-05-21T00:49:09.596Z,0.00
2019-05-21T00:50:09.585Z,0.00
2019-05-21T00:51:09.575Z,0.00
2019-05-21T00:52:09.757Z,0.00
2019-05-21T00:53:09.561Z,0.00
2019-05-21T00:54:09.541Z,0.00
2019-05-21T00:55:09.532Z,0.00
2019-05-21T00:56:09.531Z,0.00
2019-05-21T00:57:09.545Z,0.00
2019-05-21T00:58:09.504Z,0.00
2019-05-21T00:59:09.498Z,0.00
2019-05-21T01:00:09.560Z,0.00
2019-05-21T01:01:09.467Z,0.00
2019-05-21T01:02:09.469Z,0.00
2019-05-21T01:03:09.477Z,0.00
2019-05-21T01:04:09.443Z,0.00
2019-05-21T01:05:09.439Z,0.00
2019-05-21T01:06:09.423Z,0.00
2019-05-21T01:07:09.428Z,0.00
2019-05-21T01:08:09.406Z,0.00
2019-05-21T01:09:09.401Z,0.00
2019-05-21T01:10:09.388Z,0.00
2019-05-21T01:11:09.376Z,0.00
2019-05-21T01:12:09.363Z,0.00
2019-05-21T01:13:09.345Z,0.00
2019-05-21T01:14:09.352Z,0.00
2019-05-21T01:15:09.347Z,0.00
2019-05-21T01:16:09.312Z,0.00
2019-05-21T01:17:09.313Z,0.00
2019-05-21T01:18:09.295Z,0.00
2019-05-21T01:19:09.280Z,0.00
2019-05-21T01:20:09.277Z,0.00
2019-05-21T01:21:09.253Z,0.00
2019-05-21T01:22:09.244Z,0.00
2019-05-21T01:23:09.228Z,0.00
2019-05-21T01:24:09.236Z,0.00
2019-05-21T01:25:09.228Z,0.00
2019-05-21T01:26:09.198Z,0.00
2019-05-21T01:27:09.185Z,0.00
2019-05-21T01:28:09.185Z,0.00
2019-05-21T01:29:09.171Z,0.00
2019-05-21T01:30:09.194Z,0.00
2019-05-21T01:31:09.154Z,0.00
2019-05-21T01:32:09.147Z,0.00
2019-05-21T01:33:09.131Z,0.00
2019-05-21T01:34:11.374Z,0.00
2019-05-21T01:35:17.217Z,0.00
2019-05-21T01:36:10.109Z,0.00
2019-05-21T01:37:09.089Z,0.00
2019-05-21T01:38:09.077Z,0.00
2019-05-21T01:39:09.068Z,0.00
2019-05-21T01:40:09.061Z,0.00
2019-05-21T01:41:09.072Z,0.00
2019-05-21T01:42:09.045Z,0.00
2019-05-21T01:43:09.021Z,0.00
2019-05-21T01:44:09.017Z,0.00
2019-05-21T01:45:09.005Z,0.00
2019-05-21T01:46:08.993Z,0.00
2019-05-21T01:47:09.004Z,0.00
2019-05-21T01:48:08.975Z,0.00
2019-05-21T01:49:08.958Z,0.00
2019-05-21T01:50:08.951Z,0.00
2019-05-21T01:51:08.942Z,0.00
2019-05-21T01:52:08.955Z,0.00
2019-05-21T01:53:08.926Z,0.00
2019-05-21T01:54:08.906Z,0.00
2019-05-21T01:55:08.897Z,0.00
2019-05-21T01:56:08.882Z,0.00
2019-05-21T01:57:08.871Z,0.00
2019-05-21T01:58:08.890Z,0.00
2019-05-21T01:59:08.859Z,0.00
2019-05-21T02:00:08.835Z,0.00
2019-05-21T02:01:08.823Z,0.00
2019-05-21T02:02:08.813Z,0.00
2019-05-21T02:03:08.803Z,0.00
2019-05-21T02:04:08.808Z,0.00
2019-05-21T02:05:08.784Z,0.00
2019-05-21T02:06:08.774Z,0.00
2019-05-21T02:07:08.759Z,0.00
2019-05-21T02:08:08.744Z,0.00
2019-05-21T02:09:08.757Z,0.00
2019-05-21T02:10:08.722Z,0.00
2019-05-21T02:11:08.710Z,0.00
2019-05-21T02:12:10.774Z,0.00
2019-05-21T02:13:08.698Z,0.00
2019-05-21T02:14:08.678Z,0.00
2019-05-21T02:15:08.693Z,0.00
2019-05-21T02:16:08.662Z,0.00
2019-05-21T02:17:08.650Z,0.00
2019-05-21T02:18:08.638Z,0.00
2019-05-21T02:19:08.627Z,0.00
2019-05-21T02:20:08.619Z,0.00
2019-05-21T02:21:08.624Z,0.00
2019-05-21T02:22:08.589Z,0.00
2019-05-21T02:23:08.581Z,0.00
2019-05-21T02:24:08.577Z,4.00
2019-05-21T02:25:08.562Z,4.00
2019-05-21T02:26:08.557Z,4.00
2019-05-21T02:27:08.557Z,4.00
2019-05-21T02:28:08.525Z,4.00
2019-05-21T02:29:08.526Z,4.00
2019-05-21T02:30:09.689Z,4.00
2019-05-21T02:31:08.502Z,8.00
2019-05-21T02:32:08.503Z,4.00
2019-05-21T02:33:08.505Z,8.00
2019-05-21T02:34:08.474Z,12.00
2019-05-21T02:35:08.498Z,12.00
2019-05-21T02:36:08.449Z,12.00
2019-05-21T02:37:08.451Z,16.00
2019-05-21T02:38:08.429Z,16.00
2019-05-21T02:39:08.417Z,16.00
2019-05-21T02:40:08.408Z,20.00
2019-05-21T02:41:08.393Z,24.00
2019-05-21T02:42:08.403Z,24.00
2019-05-21T02:43:08.371Z,32.00
2019-05-21T02:44:08.359Z,36.00
2019-05-21T02:45:08.409Z,40.00
2019-05-21T02:46:08.351Z,44.00
2019-05-21T02:47:08.361Z,48.00
2019-05-21T02:48:08.912Z,56.00
2019-05-21T02:49:08.314Z,64.00
2019-05-21T02:50:08.299Z,72.00
2019-05-21T02:51:08.301Z,80.00
2019-05-21T02:52:08.294Z,88.00
2019-05-21T02:53:08.258Z,96.00
2019-05-21T02:54:08.250Z,108.00
2019-05-21T02:55:08.242Z,120.00
2019-05-21T02:56:08.239Z,128.00
2019-05-21T02:57:08.247Z,144.00
2019-05-21T02:58:08.218Z,160.00
2019-05-21T02:59:08.206Z,172.00
2019-05-21T03:00:08.197Z,188.00
2019-05-21T03:01:08.179Z,208.00
2019-05-21T03:02:08.184Z,228.00
2019-05-21T03:03:08.185Z,244.00
2019-05-21T03:04:08.146Z,268.00
2019-05-21T03:05:08.129Z,296.00
2019-05-21T03:06:14.513Z,320.00
2019-05-21T03:07:09.131Z,344.00
2019-05-21T03:08:08.115Z,372.00
2019-05-21T03:09:08.121Z,400.00
2019-05-21T03:10:08.087Z,424.00
2019-05-21T03:11:08.076Z,456.00
2019-05-21T03:12:08.089Z,488.00
2019-05-21T03:13:08.049Z,520.00
2019-05-21T03:14:08.070Z,548.00
2019-05-21T03:15:08.036Z,584.00
2019-05-21T03:16:08.023Z,616.00
2019-05-21T03:17:08.013Z,656.00
2019-05-21T03:18:08.020Z,692.00
2019-05-21T03:19:07.987Z,728.00
2019-05-21T03:20:07.983Z,768.00
2019-05-21T03:21:07.979Z,804.00
2019-05-21T03:22:07.958Z,844.00
2019-05-21T03:23:07.958Z,888.00
2019-05-21T03:24:07.944Z,924.00
2019-05-21T03:25:07.931Z,968.00
2019-05-21T03:26:07.916Z,1008.00
2019-05-21T03:27:07.907Z,1052.00
2019-05-21T03:28:07.907Z,1088.00
2019-05-21T03:29:07.918Z,1128.00
2019-05-21T03:30:07.880Z,1168.00
2019-05-21T03:31:07.884Z,1208.00
2019-05-21T03:32:07.864Z,1252.00
2019-05-21T03:33:07.857Z,1288.00
2019-05-21T03:34:07.837Z,1328.00
2019-05-21T03:35:07.856Z,1368.00
2019-05-21T03:36:07.820Z,1408.00
2019-05-21T03:37:07.794Z,1452.00
2019-05-21T03:38:07.785Z,1492.00
2019-05-21T03:39:07.791Z,1532.00
2019-05-21T03:40:07.782Z,1576.00
2019-05-21T03:41:07.802Z,1620.00
2019-05-21T03:42:07.755Z,1660.00
2019-05-21T03:43:07.742Z,1700.00
2019-05-21T03:44:07.728Z,1744.00
2019-05-21T03:45:08.457Z,1788.00
2019-05-21T03:46:07.708Z,1828.00
2019-05-21T03:47:07.771Z,1864.00
2019-05-21T03:48:07.688Z,1904.00
2019-05-21T03:49:07.671Z,1948.00
2019-05-21T03:50:07.666Z,1988.00
2019-05-21T03:51:07.663Z,2028.00
2019-05-21T03:52:07.668Z,2068.00
2019-05-21T03:53:07.631Z,2108.00
2019-05-21T03:54:07.624Z,2152.00
2019-05-21T03:55:07.608Z,2188.00
2019-05-21T03:56:07.593Z,2232.00
2019-05-21T03:57:07.600Z,2272.00
2019-05-21T03:58:07.601Z,2316.00
2019-05-21T03:59:07.561Z,2356.00
2019-05-21T04:00:07.565Z,2396.00
2019-05-21T04:01:07.545Z,2436.00
2019-05-21T04:02:07.533Z,2476.00
2019-05-21T04:03:07.551Z,2512.00
2019-05-21T04:04:07.505Z,2548.00
2019-05-21T04:05:07.506Z,2584.00
2019-05-21T04:06:07.490Z,2616.00
2019-05-21T04:07:07.487Z,2648.00
2019-05-21T04:08:07.463Z,2688.00
2019-05-21T04:09:07.469Z,2728.00
2019-05-21T04:10:07.444Z,2768.00
2019-05-21T04:11:07.445Z,2796.00
2019-05-21T04:12:07.425Z,2836.00
2019-05-21T04:13:07.585Z,2868.00
2019-05-21T04:14:07.417Z,2904.00
2019-05-21T04:15:07.393Z,2940.00
2019-05-21T04:16:07.381Z,2976.00
2019-05-21T04:17:07.408Z,3016.00
2019-05-21T04:18:07.350Z,3052.00
2019-05-21T04:19:07.367Z,3092.00
2019-05-21T04:20:07.336Z,3136.00
2019-05-21T04:21:07.334Z,3164.00
2019-05-21T04:22:07.309Z,3196.00
2019-05-21T04:23:07.301Z,3228.00
2019-05-21T04:24:08.920Z,3264.00
2019-05-21T04:25:07.299Z,3288.00
2019-05-21T04:26:07.281Z,3320.00
2019-05-21T04:27:07.267Z,3356.00
2019-05-21T04:28:07.247Z,3392.00
2019-05-21T04:29:07.229Z,3420.00
2019-05-21T04:30:11.095Z,3452.00
2019-05-21T04:31:07.209Z,3488.00
2019-05-21T04:32:07.212Z,3516.00
2019-05-21T04:33:07.313Z,3556.00
2019-05-21T04:34:07.199Z,3588.00
2019-05-21T04:35:07.204Z,3624.00
2019-05-21T04:36:07.162Z,3656.00
2019-05-21T04:37:10.524Z,3676.00
2019-05-21T04:38:07.151Z,3716.00
2019-05-21T04:39:07.139Z,3748.00
2019-05-21T04:40:07.111Z,3776.00
2019-05-21T04:41:07.119Z,3808.00
2019-05-21T04:42:07.098Z,3832.00
2019-05-21T04:43:07.111Z,3868.00
2019-05-21T04:44:07.080Z,3900.00
2019-05-21T04:45:07.064Z,3928.00
2019-05-21T04:46:07.070Z,3960.00
2019-05-21T04:47:07.041Z,3996.00
2019-05-21T04:48:07.026Z,4020.00
2019-05-21T04:49:07.021Z,4048.00
2019-05-21T04:50:07.016Z,4096.00
2019-05-21T04:51:07.032Z,4124.00
2019-05-21T04:52:06.996Z,4160.00
2019-05-21T04:53:06.981Z,4200.00
2019-05-21T04:54:06.969Z,4236.00
2019-05-21T04:55:07.021Z,4264.00
2019-05-21T04:56:06.960Z,4288.00
2019-05-21T04:57:06.959Z,4320.00
2019-05-21T04:58:06.924Z,4336.00
2019-05-21T04:59:06.916Z,4368.00
2019-05-21T05:00:06.900Z,4380.00
2019-05-21T05:01:06.893Z,4420.00
2019-05-21T05:02:06.939Z,4464.00
2019-05-21T05:03:06.875Z,4500.00
2019-05-21T05:04:06.862Z,4540.00
2019-05-21T05:05:06.858Z,4592.00
2019-05-21T05:06:06.847Z,4644.00
2019-05-21T05:07:06.854Z,4660.00
2019-05-21T05:08:06.977Z,4696.00
2019-05-21T05:09:06.797Z,4728.00
2019-05-21T05:10:06.795Z,4768.00
2019-05-21T05:11:06.792Z,4800.00
2019-05-21T05:12:06.769Z,4856.00
2019-05-21T05:13:06.768Z,4904.00
2019-05-21T05:14:06.772Z,4896.00
2019-05-21T05:15:06.748Z,4896.00
2019-05-21T05:16:06.740Z,4936.00
2019-05-21T05:17:06.729Z,4996.00
2019-05-21T05:18:06.740Z,5040.00
2019-05-21T05:19:06.711Z,5064.00
2019-05-21T05:20:06.701Z,5112.00
2019-05-21T05:21:06.674Z,5144.00
2019-05-21T05:22:06.679Z,5188.00
2019-05-21T05:23:06.657Z,5216.00
2019-05-21T05:24:06.666Z,5236.00
2019-05-21T05:25:06.651Z,5288.00
2019-05-21T05:26:06.618Z,5312.00
2019-05-21T05:27:06.606Z,5396.00
2019-05-21T05:28:06.622Z,5472.00
2019-05-21T05:29:06.603Z,5496.00
2019-05-21T05:30:06.580Z,5552.00
2019-05-21T05:31:06.578Z,5700.00
2019-05-21T05:32:06.582Z,6004.00
2019-05-21T05:33:06.544Z,6500.00
2019-05-21T05:34:06.557Z,7024.00
2019-05-21T05:35:06.522Z,7336.00
2019-05-21T05:36:06.519Z,7708.00
2019-05-21T05:37:06.511Z,8160.00
2019-05-21T05:38:06.535Z,9632.00
2019-05-21T05:39:06.482Z,15660.00
2019-05-21T05:40:06.666Z,23136.00
2019-05-21T05:41:06.459Z,27104.00
2019-05-21T05:42:06.454Z,27520.00
2019-05-21T05:43:06.458Z,27616.00
2019-05-21T05:44:06.426Z,28384.00
2019-05-21T05:45:06.447Z,29888.00
2019-05-21T05:46:06.407Z,30688.00
2019-05-21T05:47:06.387Z,30912.00
2019-05-21T05:48:06.389Z,31008.00
2019-05-21T05:49:06.374Z,32256.00
2019-05-21T05:50:06.402Z,33344.00
2019-05-21T05:51:06.352Z,33248.00
2019-05-21T05:52:06.335Z,34208.00
2019-05-21T05:53:06.332Z,34688.00
2019-05-21T05:54:07.785Z,33600.00
2019-05-21T05:55:06.304Z,32512.00
2019-05-21T05:56:06.308Z,34336.00
2019-05-21T05:57:06.283Z,34304.00
2019-05-21T05:58:06.276Z,33824.00
2019-05-21T05:59:06.261Z,36064.00
2019-05-21T06:00:06.266Z,36864.00
2019-05-21T06:01:06.269Z,34528.00
2019-05-21T06:02:06.233Z,35328.00
2019-05-21T06:03:06.224Z,37536.00
2019-05-21T06:04:06.204Z,37184.00
2019-05-21T06:05:06.194Z,36704.00
2019-05-21T06:06:06.197Z,35808.00
2019-05-21T06:07:06.216Z,35808.00
2019-05-21T06:08:06.170Z,38624.00
2019-05-21T06:09:06.156Z,39392.00
2019-05-21T06:10:06.190Z,40608.00
2019-05-21T06:11:06.184Z,42496.00
2019-05-21T06:12:06.131Z,42208.00
2019-05-21T06:13:06.123Z,40576.00
2019-05-21T06:14:06.106Z,41344.00
2019-05-21T06:15:06.112Z,42848.00
2019-05-21T06:16:06.076Z,44608.00
2019-05-21T06:17:06.122Z,46816.00
2019-05-21T06:18:06.083Z,48512.00
2019-05-21T06:19:06.058Z,50432.00
2019-05-21T06:20:06.046Z,51936.00
2019-05-21T06:21:06.034Z,52672.00
2019-05-21T06:22:06.045Z,53632.00
2019-05-21T06:23:06.070Z,53440.00
2019-05-21T06:24:06.010Z,51264.00
2019-05-21T06:25:06.216Z,53184.00
2019-05-21T06:26:06.076Z,53568.00
2019-05-21T06:27:05.973Z,54496.00
2019-05-21T06:28:05.969Z,53856.00
2019-05-21T06:29:05.963Z,54848.00
2019-05-21T06:30:05.941Z,54912.00
2019-05-21T06:31:05.917Z,56416.00
2019-05-21T06:32:05.927Z,55840.00
2019-05-21T06:33:05.908Z,54080.00
2019-05-21T06:34:05.894Z,55776.00
2019-05-21T06:35:05.896Z,56768.00
2019-05-21T06:36:05.867Z,56448.00
2019-05-21T06:37:05.916Z,56928.00
2019-05-21T06:38:17.331Z,58400.00
2019-05-21T06:39:06.824Z,58592.00
2019-05-21T06:40:05.823Z,59168.00
2019-05-21T06:41:05.825Z,60320.00
2019-05-21T06:42:05.821Z,61504.00
2019-05-21T06:43:05.796Z,61248.00
2019-05-21T06:44:05.776Z,62304.00
2019-05-21T06:45:05.848Z,40288.00
2019-05-21T06:46:05.767Z,44128.00
2019-05-21T06:47:05.786Z,59680.00
2019-05-21T06:48:05.743Z,58976.00
2019-05-21T06:49:05.719Z,61376.00
2019-05-21T06:50:05.711Z,63520.00
2019-05-21T06:51:05.709Z,63616.00
2019-05-21T06:52:05.706Z,64224.00
2019-05-21T06:53:05.689Z,64512.00
2019-05-21T06:54:05.692Z,64512.00
2019-05-21T06:55:05.670Z,65568.00
2019-05-21T06:56:07.478Z,66464.00
2019-05-21T06:57:05.655Z,67360.00
2019-05-21T06:58:05.627Z,65664.00
2019-05-21T06:59:05.614Z,66016.00
2019-05-21T07:00:05.612Z,68928.00
2019-05-21T07:01:06.028Z,70400.00
2019-05-21T07:02:05.642Z,68704.00
2019-05-21T07:03:05.646Z,68384.00
2019-05-21T07:04:05.642Z,71200.00
2019-05-21T07:05:05.566Z,69600.00
2019-05-21T07:06:05.553Z,67296.00
2019-05-21T07:07:05.573Z,69216.00
2019-05-21T07:08:05.531Z,71872.00
2019-05-21T07:09:05.522Z,71264.00
2019-05-21T07:10:05.518Z,71136.00
2019-05-21T07:11:05.496Z,71872.00
2019-05-21T07:12:05.507Z,73216.00
2019-05-21T07:13:05.520Z,72544.00
2019-05-21T07:14:05.479Z,72992.00
2019-05-21T07:15:05.476Z,74880.00
2019-05-21T07:16:05.884Z,74528.00
2019-05-21T07:17:05.432Z,72928.00
2019-05-21T07:18:05.429Z,73504.00
2019-05-21T07:19:05.433Z,74400.00
2019-05-21T07:20:05.410Z,74176.00
2019-05-21T07:21:05.404Z,75936.00
2019-05-21T07:22:12.593Z,77120.00
2019-05-21T07:23:06.484Z,78464.00
2019-05-21T07:24:05.389Z,78208.00
2019-05-21T07:25:05.365Z,77312.00
2019-05-21T07:26:05.349Z,78656.00
2019-05-21T07:27:05.430Z,78176.00
2019-05-21T07:28:05.319Z,79168.00
2019-05-21T07:29:05.343Z,80736.00
2019-05-21T07:30:05.310Z,80320.00
2019-05-21T07:31:05.285Z,80128.00
2019-05-21T07:32:05.278Z,83648.00
2019-05-21T07:33:05.649Z,84704.00
2019-05-21T07:34:05.252Z,83584.00
2019-05-21T07:35:05.267Z,82880.00
2019-05-21T07:36:05.239Z,75072.00
2019-05-21T07:37:05.228Z,71296.00
2019-05-21T07:38:05.220Z,67776.00
2019-05-21T07:39:05.236Z,64192.00
2019-05-21T07:40:05.190Z,61984.00
2019-05-21T07:41:05.178Z,72608.00
2019-05-21T07:42:05.168Z,70880.00
2019-05-21T07:43:05.158Z,83840.00
2019-05-21T07:44:05.290Z,89120.00
2019-05-21T07:45:05.172Z,90592.00
2019-05-21T07:46:05.223Z,89824.00
2019-05-21T07:47:05.122Z,89632.00
2019-05-21T07:48:05.107Z,88768.00
2019-05-21T07:49:05.107Z,89280.00
2019-05-21T07:50:05.108Z,89920.00
2019-05-21T07:51:05.079Z,90272.00
2019-05-21T07:52:05.078Z,92384.00
2019-05-21T07:53:05.095Z,92032.00
2019-05-21T07:54:05.061Z,89664.00
2019-05-21T07:55:05.059Z,89472.00
2019-05-21T07:56:05.056Z,88672.00
2019-05-21T07:57:05.025Z,91424.00
2019-05-21T07:58:05.013Z,89152.00
2019-05-21T07:59:05.003Z,87328.00
2019-05-21T08:00:04.986Z,89216.00
2019-05-21T08:01:05.002Z,89984.00
2019-05-21T08:02:04.971Z,94080.00
2019-05-21T08:03:04.967Z,96704.00
2019-05-21T08:04:04.965Z,97536.00
2019-05-21T08:05:05.072Z,95360.00
2019-05-21T08:06:04.964Z,95008.00
2019-05-21T08:07:04.941Z,94144.00
2019-05-21T08:08:04.932Z,96896.00
2019-05-21T08:09:13.432Z,97024.00
2019-05-21T08:10:05.902Z,97408.00
2019-05-21T08:11:04.886Z,97152.00
2019-05-21T08:12:27.483Z,96800.00
2019-05-21T08:13:05.870Z,97888.00
2019-05-21T08:14:04.861Z,96704.00
2019-05-21T08:15:04.845Z,95552.00
2019-05-21T08:16:04.841Z,95936.00
2019-05-21T08:17:04.842Z,95392.00
2019-05-21T08:18:04.849Z,96928.00
2019-05-21T08:19:04.809Z,97376.00
2019-05-21T08:20:10.016Z,94688.00
2019-05-21T08:21:05.785Z,98208.00
2019-05-21T08:22:04.809Z,98592.00
2019-05-21T08:23:04.764Z,100128.00
2019-05-21T08:24:04.769Z,98848.00
2019-05-21T08:25:04.741Z,100768.00
2019-05-21T08:26:04.737Z,101024.00
2019-05-21T08:27:04.723Z,104672.00
2019-05-21T08:28:04.749Z,103680.00
2019-05-21T08:29:04.712Z,102272.00
2019-05-21T08:30:04.702Z,101408.00
2019-05-21T08:31:04.693Z,100832.00
2019-05-21T08:32:04.680Z,102880.00
2019-05-21T08:33:04.714Z,101856.00
2019-05-21T08:34:04.658Z,101536.00
2019-05-21T08:35:04.650Z,102272.00
2019-05-21T08:36:05.201Z,103968.00
2019-05-21T08:37:04.641Z,101440.00
2019-05-21T08:38:06.764Z,103040.00
2019-05-21T08:39:04.617Z,102240.00
2019-05-21T08:40:04.629Z,104480.00
2019-05-21T08:41:04.598Z,104512.00
2019-05-21T08:42:04.587Z,105152.00
2019-05-21T08:43:04.604Z,105280.00
2019-05-21T08:44:04.571Z,103872.00
2019-05-21T08:45:04.696Z,105792.00
2019-05-21T08:46:04.548Z,105600.00
2019-05-21T08:47:04.534Z,104416.00
2019-05-21T08:48:04.551Z,107168.00
2019-05-21T08:49:04.551Z,107136.00
2019-05-21T08:50:04.512Z,108800.00
2019-05-21T08:51:04.503Z,110816.00
2019-05-21T08:52:04.492Z,110816.00
2019-05-21T08:53:04.508Z,112992.00
2019-05-21T08:54:04.472Z,115968.00
2019-05-21T08:55:04.517Z,117024.00
2019-05-21T08:56:04.451Z,118432.00
2019-05-21T08:57:04.453Z,118304.00
2019-05-21T08:58:07.282Z,120832.00
2019-05-21T08:59:04.422Z,117696.00
2019-05-21T09:00:04.422Z,123808.00
2019-05-21T09:01:04.465Z,76256.00
2019-05-21T09:02:04.408Z,32032.00
2019-05-21T09:03:04.394Z,42848.00
2019-05-21T09:04:04.377Z,123616.00
2019-05-21T09:05:04.369Z,124896.00
2019-05-21T09:06:04.376Z,102432.00
2019-05-21T09:07:04.342Z,35200.00
2019-05-21T09:08:04.343Z,115744.00
2019-05-21T09:09:04.344Z,104448.00
2019-05-21T09:10:04.315Z,128480.00
2019-05-21T09:11:04.331Z,132800.00
2019-05-21T09:12:04.305Z,134720.00
2019-05-21T09:13:04.294Z,133440.00
2019-05-21T09:14:04.290Z,24736.00
2019-05-21T09:15:04.277Z,29600.00
2019-05-21T09:16:04.276Z,27840.00
2019-05-21T09:17:04.263Z,65088.00
2019-05-21T09:18:04.241Z,78464.00
2019-05-21T09:19:04.313Z,124192.00
2019-05-21T09:20:04.230Z,39232.00
2019-05-21T09:21:04.241Z,115712.00
2019-05-21T09:22:04.216Z,122368.00
2019-05-21T09:23:04.207Z,134336.00
2019-05-21T09:24:04.190Z,130944.00
2019-05-21T09:25:04.435Z,64768.00
2019-05-21T09:26:04.168Z,65504.00
2019-05-21T09:27:04.181Z,122112.00
2019-05-21T09:28:04.156Z,127232.00
2019-05-21T09:29:04.144Z,129440.00
2019-05-21T09:30:04.127Z,129376.00
2019-05-21T09:31:04.156Z,126528.00
2019-05-21T09:32:04.145Z,124736.00
2019-05-21T09:33:04.110Z,90464.00
2019-05-21T09:34:04.095Z,119648.00
2019-05-21T09:35:04.088Z,39456.00
2019-05-21T09:36:04.080Z,72000.00
2019-05-21T09:37:18.654Z,123168.00
2019-05-21T09:38:05.062Z,125984.00
2019-05-21T09:39:04.042Z,121728.00
2019-05-21T09:40:04.126Z,125152.00
2019-05-21T09:41:04.027Z,123936.00
2019-05-21T09:42:04.025Z,56928.00
2019-05-21T09:43:04.022Z,48832.00
2019-05-21T09:44:03.999Z,28096.00
2019-05-21T09:45:03.998Z,26336.00
2019-05-21T09:46:03.978Z,26368.00
2019-05-21T09:47:03.970Z,28512.00
2019-05-21T09:48:03.960Z,31168.00
2019-05-21T09:49:03.976Z,32192.00
2019-05-21T09:50:04.147Z,33376.00
2019-05-21T09:51:03.947Z,38048.00
2019-05-21T09:52:03.926Z,84096.00
2019-05-21T09:53:03.919Z,146688.00
2019-05-21T09:54:03.906Z,129792.00
2019-05-21T09:55:03.917Z,146336.00
2019-05-21T09:56:03.884Z,151232.00
2019-05-21T09:57:03.888Z,133824.00
2019-05-21T09:58:03.872Z,148352.00
2019-05-21T09:59:03.856Z,132928.00
2019-05-21T10:00:04.214Z,143680.00
2019-05-21T10:01:03.854Z,143520.00
2019-05-21T10:02:03.829Z,140544.00
2019-05-21T10:03:03.819Z,134592.00
2019-05-21T10:04:03.808Z,125504.00
2019-05-21T10:05:03.798Z,25664.00
2019-05-21T10:06:03.787Z,28096.00
2019-05-21T10:07:03.789Z,24960.00
2019-05-21T10:08:03.772Z,23296.00
2019-05-21T10:09:03.767Z,22752.00
2019-05-21T10:10:03.754Z,22176.00
2019-05-21T10:11:03.751Z,21664.00
2019-05-21T10:12:03.751Z,21184.00
2019-05-21T10:13:03.721Z,20864.00
2019-05-21T10:14:03.715Z,20704.00
2019-05-21T10:15:03.723Z,21248.00
2019-05-21T10:16:03.694Z,22368.00
2019-05-21T10:17:03.702Z,22720.00
2019-05-21T10:18:03.710Z,22560.00
2019-05-21T10:19:03.665Z,22208.00
2019-05-21T10:20:03.664Z,22944.00
2019-05-21T10:21:03.650Z,24576.00
2019-05-21T10:22:03.700Z,25696.00
2019-05-21T10:23:03.635Z,28256.00
2019-05-21T10:24:03.635Z,28032.00
2019-05-21T10:25:03.601Z,33344.00
2019-05-21T10:26:03.603Z,51872.00
2019-05-21T10:27:03.761Z,67200.00
2019-05-21T10:28:03.586Z,32736.00
2019-05-21T10:29:03.562Z,28800.00
2019-05-21T10:30:03.546Z,27392.00
2019-05-21T10:31:03.538Z,26880.00
2019-05-21T10:32:03.592Z,26176.00
2019-05-21T10:33:03.535Z,25376.00
2019-05-21T10:34:03.525Z,24416.00
2019-05-21T10:35:04.921Z,23104.00
2019-05-21T10:36:03.486Z,22848.00
2019-05-21T10:37:03.520Z,22720.00
2019-05-21T10:38:03.472Z,23040.00
2019-05-21T10:39:03.455Z,23552.00
2019-05-21T10:40:03.485Z,24320.00
2019-05-21T10:41:03.440Z,23616.00
2019-05-21T10:42:03.433Z,22016.00
2019-05-21T10:43:03.444Z,20192.00
2019-05-21T10:44:03.421Z,18240.00
2019-05-21T10:45:03.402Z,18624.00
2019-05-21T10:46:03.394Z,19520.00
2019-05-21T10:47:03.402Z,20896.00
2019-05-21T10:48:03.392Z,21728.00
2019-05-21T10:49:03.376Z,21920.00
2019-05-21T10:50:03.383Z,21760.00
2019-05-21T10:51:03.381Z,22464.00
2019-05-21T10:52:03.336Z,26496.00
2019-05-21T10:53:03.398Z,26368.00
2019-05-21T10:54:03.317Z,26336.00
2019-05-21T10:55:03.320Z,27200.00
2019-05-21T10:56:03.330Z,26880.00
2019-05-21T10:57:03.303Z,25536.00
2019-05-21T10:58:03.311Z,25184.00
2019-05-21T10:59:03.270Z,25792.00
2019-05-21T11:00:03.364Z,27744.00
2019-05-21T11:01:03.262Z,39008.00
2019-05-21T11:02:03.231Z,52832.00
2019-05-21T11:03:03.270Z,83200.00
2019-05-21T11:04:03.274Z,77824.00
2019-05-21T11:05:03.222Z,73952.00
2019-05-21T11:06:10.225Z,31136.00
2019-05-21T11:07:04.179Z,26528.00
2019-05-21T11:08:23.096Z,25952.00
2019-05-21T11:09:04.158Z,26336.00
2019-05-21T11:10:03.179Z,26400.00
2019-05-21T11:11:03.150Z,26368.00
2019-05-21T11:12:03.127Z,26336.00
2019-05-21T11:13:03.115Z,24832.00
2019-05-21T11:14:03.111Z,23136.00
2019-05-21T11:15:03.124Z,22048.00
2019-05-21T11:16:03.185Z,21280.00
2019-05-21T11:17:03.071Z,21536.00
2019-05-21T11:18:11.492Z,22816.00
2019-05-21T11:19:04.051Z,24480.00
2019-05-21T11:20:03.038Z,26400.00
2019-05-21T11:21:03.032Z,26688.00
2019-05-21T11:22:03.046Z,26656.00
2019-05-21T11:23:03.025Z,27616.00
2019-05-21T11:24:03.092Z,28064.00
2019-05-21T11:25:02.985Z,26912.00
2019-05-21T11:26:03.128Z,27296.00
2019-05-21T11:27:04.849Z,27712.00
2019-05-21T11:28:06.005Z,30976.00
2019-05-21T11:29:02.941Z,34944.00
2019-05-21T11:30:02.947Z,36384.00
2019-05-21T11:31:02.983Z,34912.00
2019-05-21T11:32:02.919Z,52608.00
2019-05-21T11:33:02.917Z,93024.00
2019-05-21T11:34:02.894Z,111872.00
2019-05-21T11:35:02.885Z,138112.00
2019-05-21T11:36:02.898Z,133952.00
2019-05-21T11:37:02.931Z,121088.00
2019-05-21T11:38:02.874Z,133792.00
2019-05-21T11:39:02.840Z,115680.00
2019-05-21T11:40:02.832Z,68992.00
2019-05-21T11:41:02.863Z,50464.00
2019-05-21T11:42:02.808Z,41792.00
2019-05-21T11:43:02.811Z,38560.00
2019-05-21T11:44:02.798Z,37952.00
2019-05-21T11:45:02.794Z,38848.00
2019-05-21T11:46:03.307Z,39840.00
2019-05-21T11:47:02.767Z,38272.00
2019-05-21T11:48:02.768Z,35328.00
2019-05-21T11:49:02.742Z,35776.00
2019-05-21T11:50:02.735Z,46592.00
2019-05-21T11:51:02.724Z,79136.00
2019-05-21T11:52:02.719Z,85120.00
2019-05-21T11:53:02.714Z,72288.00
2019-05-21T11:54:02.689Z,47552.00
2019-05-21T11:55:02.694Z,54080.00
2019-05-21T11:56:02.683Z,56864.00
2019-05-21T11:57:02.664Z,63168.00
2019-05-21T11:58:02.669Z,59840.00
2019-05-21T11:59:02.685Z,58368.00
2019-05-21T12:00:02.635Z,69312.00
2019-05-21T12:01:02.627Z,65632.00
2019-05-21T12:02:02.616Z,80352.00
2019-05-21T12:03:02.658Z,81888.00
2019-05-21T12:04:02.604Z,89024.00
2019-05-21T12:05:02.586Z,82880.00
2019-05-21T12:06:02.570Z,96288.00
2019-05-21T12:07:03.659Z,86848.00